Time,TemperatureF,DewpointF,PressureIn,WindDirection,WindDirectionDegrees,WindSpeedMPH,WindSpeedGustMPH,Humidity,HourlyPrecipIn,Conditions,Clouds,dailyrainin,SolarRadiationWatts/m^2,SoftwareType,DateUTC
2013-10-14 00:01:00,66.9,65.1,30.06,NE,44,0.0,1.0,94,0.00,,,0.00,0.0,meteohub,2013-10-14 04:01:00,
2013-10-14 00:02:00,66.9,65.1,30.06,NE,44,0.0,1.0,94,0.00,,,0.00,0.0,meteohub,2013-10-14 04:02:00,
2013-10-14 00:07:00,66.9,65.1,30.06,NE,44,0.0,1.0,94,0.00,,,0.00,0.0,meteohub,2013-10-14 04:07:00,
2013-10-14 00:12:00,66.9,65.1,30.05,NE,44,0.0,1.0,94,0.00,,,0.00,0.0,meteohub,2013-10-14 04:12:00,
2013-10-14 00:17:00,66.8,65.0,30.05,NE,44,0.0,-999.0,94,-99.99,,,0.00,0,weatherlink.com 1.10,2013-10-14 04:17:00,
2013-10-14 00:22:00,66.7,64.9,30.05,NE,44,0.0,1.0,94,0.00,,,0.00,0.0,meteohub,2013-10-14 04:22:00,
2013-10-14 00:27:00,66.7,64.9,30.05,NE,44,0.0,0.0,94,0.00,,,0.00,0.0,meteohub,2013-10-14 04:27:00,
2013-10-14 00:32:00,66.6,64.8,30.05,NE,44,0.0,0.0,94,0.00,,,0.00,0.0,meteohub,2013-10-14 04:32:00,
2013-10-14 00:37:00,66.4,64.6,30.05,NE,44,0.0,0.0,94,0.00,,,0.00,0.0,meteohub,2013-10-14 04:37:00,
2013-10-14 00:42:00,66.4,64.9,30.05,NE,44,0.0,0.0,95,0.00,,,0.00,0.0,meteohub,2013-10-14 04:42:00,
2013-10-14 00:47:00,66.4,64.9,30.05,NE,44,0.0,1.0,95,0.00,,,0.00,0.0,meteohub,2013-10-14 04:47:00,
2013-10-14 00:52:00,66.2,64.8,30.05,NE,44,0.0,1.0,95,0.00,,,0.00,0.0,meteohub,2013-10-14 04:52:00,
2013-10-14 00:57:00,66.0,64.6,30.04,NE,44,0.0,0.0,95,0.00,,,0.00,0.0,meteohub,2013-10-14 04:57:00,
2013-10-14 01:02:00,66.0,64.6,30.04,NE,44,0.0,0.0,95,0.00,,,0.00,0.0,meteohub,2013-10-14 05:02:00,
2013-10-14 01:07:00,65.8,64.4,30.04,NE,44,0.0,0.0,95,0.00,,,0.00,0.0,meteohub,2013-10-14 05:07:00,
2013-10-14 01:12:00,65.8,64.4,30.04,NE,44,0.0,0.0,95,0.00,,,0.00,0.0,meteohub,2013-10-14 05:12:00,
2013-10-14 01:17:00,65.7,64.2,30.04,NE,44,0.0,0.0,95,0.00,,,0.00,0.0,meteohub,2013-10-14 05:17:00,
2013-10-14 01:22:00,65.5,64.0,30.04,NE,44,0.0,0.0,95,0.00,,,0.00,0.0,meteohub,2013-10-14 05:22:00,
2013-10-14 01:27:00,65.5,64.0,30.04,NE,44,0.0,0.0,95,0.00,,,0.00,0.0,meteohub,2013-10-14 05:27:00,
2013-10-14 01:32:00,65.5,64.0,30.04,NE,44,0.0,0.0,95,0.00,,,0.00,0.0,meteohub,2013-10-14 05:32:00,
2013-10-14 01:37:00,65.3,63.9,30.04,NE,44,0.0,0.0,95,0.00,,,0.00,0.0,meteohub,2013-10-14 05:37:00,
2013-10-14 01:42:00,65.3,63.9,30.04,NE,44,0.0,0.0,95,0.00,,,0.00,0.0,meteohub,2013-10-14 05:42:00,
2013-10-14 01:47:00,65.1,64.0,30.04,NE,44,0.0,0.0,96,0.00,,,0.00,0.0,meteohub,2013-10-14 05:47:00,
2013-10-14 01:52:00,65.1,64.0,30.04,NE,44,0.0,0.0,96,0.00,,,0.00,0.0,meteohub,2013-10-14 05:52:00,
2013-10-14 01:57:00,65.1,64.0,30.04,NE,44,0.0,0.0,96,0.00,,,0.00,0.0,meteohub,2013-10-14 05:57:00,
2013-10-14 02:02:00,64.9,63.9,30.04,NE,44,0.0,0.0,96,0.00,,,0.00,0.0,meteohub,2013-10-14 06:02:00,
2013-10-14 02:07:00,64.9,63.9,30.04,NE,44,0.0,0.0,96,0.00,,,0.00,0.0,meteohub,2013-10-14 06:07:00,
2013-10-14 02:12:00,64.8,63.7,30.04,NE,44,0.0,0.0,96,0.00,,,0.00,0.0,meteohub,2013-10-14 06:12:00,
2013-10-14 02:17:00,64.8,63.7,30.04,NE,44,0.0,0.0,96,0.00,,,0.00,0.0,meteohub,2013-10-14 06:17:00,
2013-10-14 02:22:00,64.6,63.5,30.04,WNW,294,0.0,0.0,96,0.00,,,0.00,0.0,meteohub,2013-10-14 06:22:00,
2013-10-14 02:27:00,64.6,63.5,30.04,WNW,294,0.0,2.0,96,0.00,,,0.00,0.0,meteohub,2013-10-14 06:27:00,
2013-10-14 02:33:00,64.6,63.5,30.04,WNW,294,0.0,2.0,96,0.00,,,0.00,0.0,meteohub,2013-10-14 06:33:00,
2013-10-14 02:38:00,64.6,63.5,30.04,WNW,294,0.0,2.0,96,0.00,,,0.00,0.0,meteohub,2013-10-14 06:38:00,
2013-10-14 02:43:00,64.6,63.5,30.04,WNW,294,0.0,0.0,96,0.00,,,0.00,0.0,meteohub,2013-10-14 06:43:00,
2013-10-14 02:48:00,64.6,63.5,30.04,WNW,294,0.0,0.0,96,0.00,,,0.00,0.0,meteohub,2013-10-14 06:48:00,
2013-10-14 02:53:00,64.6,63.5,30.04,WNW,294,0.0,1.0,96,0.00,,,0.00,0.0,meteohub,2013-10-14 06:53:00,
2013-10-14 02:58:00,64.6,63.5,30.04,WNW,294,0.0,1.0,96,0.00,,,0.00,0.0,meteohub,2013-10-14 06:58:00,
2013-10-14 03:03:00,64.6,63.5,30.04,WNW,294,0.0,0.0,96,0.00,,,0.00,0.0,meteohub,2013-10-14 07:03:00,
2013-10-14 03:08:00,64.6,63.5,30.03,WNW,294,0.0,0.0,96,0.00,,,0.00,0.0,meteohub,2013-10-14 07:08:00,
2013-10-14 03:13:00,64.6,63.5,30.03,WNW,294,0.0,0.0,96,0.00,,,0.00,0.0,meteohub,2013-10-14 07:13:00,
2013-10-14 03:18:00,64.6,63.5,30.04,WNW,294,0.0,1.0,96,0.00,,,0.00,0.0,meteohub,2013-10-14 07:18:00,
2013-10-14 03:23:00,64.6,63.5,30.03,WNW,294,0.0,1.0,96,0.00,,,0.00,0.0,meteohub,2013-10-14 07:23:00,
2013-10-14 03:28:00,64.6,63.5,30.03,WNW,294,0.0,1.0,96,0.00,,,0.00,0.0,meteohub,2013-10-14 07:28:00,
2013-10-14 03:33:00,64.4,63.3,30.03,WNW,294,0.0,1.0,96,0.00,,,0.00,0.0,meteohub,2013-10-14 07:33:00,
2013-10-14 03:38:00,64.2,63.1,30.03,WNW,294,0.0,0.0,96,0.00,,,0.00,0.0,meteohub,2013-10-14 07:38:00,
2013-10-14 03:43:00,64.2,63.1,30.03,WNW,294,0.0,0.0,96,0.00,,,0.00,0.0,meteohub,2013-10-14 07:43:00,
2013-10-14 03:48:00,64.2,63.1,30.03,WNW,294,0.0,0.0,96,0.00,,,0.00,0.0,meteohub,2013-10-14 07:48:00,
2013-10-14 03:53:00,64.2,63.1,30.03,WNW,294,0.0,1.0,96,0.00,,,0.00,0.0,meteohub,2013-10-14 07:53:00,
2013-10-14 03:58:00,64.0,63.0,30.03,WNW,294,0.0,1.0,96,0.00,,,0.00,0.0,meteohub,2013-10-14 07:58:00,
2013-10-14 04:03:00,64.0,63.0,30.03,WNW,290,1.0,1.0,96,0.00,,,0.00,0.0,meteohub,2013-10-14 08:03:00,
2013-10-14 04:08:00,64.0,63.0,30.03,WNW,290,0.0,1.0,96,0.00,,,0.00,0.0,meteohub,2013-10-14 08:08:00,
2013-10-14 04:13:00,64.2,63.3,30.03,WNW,290,0.0,2.0,97,0.00,,,0.00,0.0,meteohub,2013-10-14 08:13:00,
2013-10-14 04:18:00,64.2,63.3,30.03,WNW,290,0.0,2.0,97,0.00,,,0.00,0.0,meteohub,2013-10-14 08:18:00,
2013-10-14 04:23:00,64.2,63.3,30.03,WNW,290,0.0,2.0,97,0.00,,,0.00,0.0,meteohub,2013-10-14 08:23:00,
2013-10-14 04:28:00,64.2,63.3,30.03,WNW,290,0.0,2.0,97,0.00,,,0.00,0.0,meteohub,2013-10-14 08:28:00,
2013-10-14 04:33:00,64.2,63.3,30.03,West,279,0.0,2.0,97,0.00,,,0.00,0.0,meteohub,2013-10-14 08:33:00,
2013-10-14 04:38:00,64.2,63.3,30.03,NW,310,0.0,4.0,97,0.00,,,0.00,0.0,meteohub,2013-10-14 08:38:00,
2013-10-14 04:43:00,64.2,63.3,30.03,NW,310,0.0,4.0,97,0.00,,,0.00,0.0,meteohub,2013-10-14 08:43:00,
2013-10-14 04:48:00,64.2,63.3,30.03,NW,310,0.0,2.0,97,0.00,,,0.00,0.0,meteohub,2013-10-14 08:48:00,
2013-10-14 04:53:00,64.2,63.3,30.03,NW,312,0.0,2.0,97,0.00,,,0.00,0.0,meteohub,2013-10-14 08:53:00,
2013-10-14 04:58:00,64.2,63.3,30.03,NW,310,0.0,1.0,97,0.00,,,0.00,0.0,meteohub,2013-10-14 08:58:00,
2013-10-14 05:03:00,64.2,63.3,30.03,NW,310,0.0,1.0,97,0.00,,,0.00,0.0,meteohub,2013-10-14 09:03:00,
2013-10-14 05:08:00,64.2,63.3,30.03,NW,310,0.0,1.0,97,0.00,,,0.00,0.0,meteohub,2013-10-14 09:08:00,
2013-10-14 05:13:00,64.2,63.3,30.03,NW,310,1.0,1.0,97,0.00,,,0.00,0.0,meteohub,2013-10-14 09:13:00,
2013-10-14 05:18:00,64.2,63.3,30.03,NW,310,0.0,2.0,97,0.00,,,0.00,0.0,meteohub,2013-10-14 09:18:00,
2013-10-14 05:23:00,64.2,63.3,30.03,WNW,303,0.0,2.0,97,0.00,,,0.00,0.0,meteohub,2013-10-14 09:23:00,
2013-10-14 05:28:00,64.0,63.1,30.03,WNW,303,0.0,2.0,97,0.00,,,0.00,0.0,meteohub,2013-10-14 09:28:00,
2013-10-14 05:33:00,64.0,63.1,30.02,NW,306,0.0,2.0,97,0.00,,,0.00,0.0,meteohub,2013-10-14 09:33:00,
2013-10-14 05:38:00,64.0,63.1,30.03,NW,311,0.0,3.0,97,0.00,,,0.00,0.0,meteohub,2013-10-14 09:38:00,
2013-10-14 05:43:00,64.0,63.1,30.03,NW,308,0.0,3.0,97,0.00,,,0.00,0.0,meteohub,2013-10-14 09:43:00,
2013-10-14 05:48:00,64.0,63.1,30.03,NW,306,0.0,3.0,97,0.00,,,0.00,0.0,meteohub,2013-10-14 09:48:00,
2013-10-14 05:53:00,64.0,63.1,30.03,NW,306,0.0,3.0,97,0.00,,,0.00,0.0,meteohub,2013-10-14 09:53:00,
2013-10-14 05:58:00,64.0,63.1,30.03,NW,317,0.0,3.0,97,0.00,,,0.00,0.0,meteohub,2013-10-14 09:58:00,
2013-10-14 06:03:00,64.2,63.3,30.03,NW,320,1.0,3.0,97,0.00,,,0.00,0.0,meteohub,2013-10-14 10:03:00,
2013-10-14 06:08:00,64.2,63.3,30.03,NW,319,0.0,3.0,97,0.00,,,0.00,0.0,meteohub,2013-10-14 10:08:00,
2013-10-14 06:13:00,64.2,63.3,30.03,NW,310,0.0,3.0,97,0.00,,,0.00,0.0,meteohub,2013-10-14 10:13:00,
2013-10-14 06:18:00,64.4,63.5,30.03,NNW,327,0.0,3.0,97,0.00,,,0.00,0.0,meteohub,2013-10-14 10:18:00,
2013-10-14 06:23:00,64.6,63.7,30.03,NNW,330,0.0,4.0,97,0.00,,,0.00,0.0,meteohub,2013-10-14 10:23:00,
2013-10-14 06:28:00,64.6,63.7,30.03,NNW,330,0.0,4.0,97,0.00,,,0.00,0.0,meteohub,2013-10-14 10:28:00,
2013-10-14 06:33:00,64.8,63.9,30.03,WNW,295,0.0,3.0,97,0.00,,,0.00,0.0,meteohub,2013-10-14 10:33:00,
2013-10-14 06:38:00,64.8,63.9,30.03,WNW,299,1.0,3.0,97,0.00,,,0.00,0.0,meteohub,2013-10-14 10:38:00,
2013-10-14 06:43:00,64.8,63.9,30.03,NW,314,0.0,4.0,97,0.00,,,0.00,0.0,meteohub,2013-10-14 10:43:00,
2013-10-14 06:48:00,64.8,63.9,30.03,NW,314,1.0,4.0,97,0.00,,,0.00,0.0,meteohub,2013-10-14 10:48:00,
2013-10-14 06:53:00,64.9,64.0,30.04,NW,314,0.0,4.0,97,0.00,,,0.00,0.0,meteohub,2013-10-14 10:53:00,
2013-10-14 06:58:00,64.9,64.0,30.04,NW,314,0.0,4.0,97,0.00,,,0.00,0.0,meteohub,2013-10-14 10:58:00,
2013-10-14 07:03:00,64.9,64.0,30.04,NW,313,0.0,2.0,97,0.00,,,0.00,0.0,meteohub,2013-10-14 11:03:00,
2013-10-14 07:08:00,64.9,64.0,30.04,WNW,302,0.0,2.0,97,0.00,,,0.00,0.0,meteohub,2013-10-14 11:08:00,
2013-10-14 07:13:00,64.9,64.0,30.04,West,281,1.0,3.0,97,0.00,,,0.00,0.0,meteohub,2013-10-14 11:13:00,
2013-10-14 07:18:00,65.1,64.2,30.04,WNW,290,0.0,5.0,97,0.00,,,0.00,0.0,meteohub,2013-10-14 11:18:00,
2013-10-14 07:23:00,65.1,64.2,30.04,WNW,290,0.0,5.0,97,0.00,,,0.00,0.0,meteohub,2013-10-14 11:23:00,
2013-10-14 07:28:00,65.1,64.2,30.04,WNW,290,0.0,5.0,97,0.00,,,0.00,0.0,meteohub,2013-10-14 11:28:00,
2013-10-14 07:33:00,65.1,64.2,30.04,WNW,296,0.0,3.0,97,0.00,,,0.00,5.0,meteohub,2013-10-14 11:33:00,
2013-10-14 07:39:00,65.1,64.0,30.04,West,275,0.0,3.0,96,0.00,,,0.00,9.0,meteohub,2013-10-14 11:39:00,
2013-10-14 07:44:00,65.3,64.0,30.04,West,281,0.0,5.0,96,0.00,,,0.00,12.0,meteohub,2013-10-14 11:44:00,
2013-10-14 07:49:00,65.5,64.2,30.04,WNW,303,1.0,5.0,96,0.00,,,0.00,19.0,meteohub,2013-10-14 11:49:00,
2013-10-14 07:54:00,65.7,64.4,30.04,WNW,296,3.0,5.0,96,0.00,,,0.00,25.0,meteohub,2013-10-14 11:54:00,
2013-10-14 07:59:00,65.8,64.6,30.05,WNW,288,0.0,8.0,96,0.00,,,0.00,26.0,meteohub,2013-10-14 11:59:00,
2013-10-14 08:04:00,66.0,64.8,30.05,NW,311,0.0,8.0,96,0.00,,,0.00,23.0,meteohub,2013-10-14 12:04:00,
2013-10-14 08:09:00,66.0,64.8,30.05,NNW,332,2.0,8.0,96,0.00,,,0.00,35.0,meteohub,2013-10-14 12:09:00,
2013-10-14 08:14:00,66.4,65.1,30.05,NW,325,0.0,8.0,96,0.00,,,0.00,28.0,meteohub,2013-10-14 12:14:00,
2013-10-14 08:19:00,66.4,65.1,30.05,West,281,6.0,8.0,96,0.00,,,0.00,37.0,meteohub,2013-10-14 12:19:00,
2013-10-14 08:24:00,66.6,65.3,30.06,North,355,0.0,8.0,96,0.00,,,0.00,40.0,meteohub,2013-10-14 12:24:00,
2013-10-14 08:29:00,66.6,65.1,30.06,West,277,0.0,6.0,95,0.00,,,0.00,42.0,meteohub,2013-10-14 12:29:00,
2013-10-14 08:34:00,66.7,65.3,30.06,West,279,0.0,6.0,95,0.00,,,0.00,49.0,meteohub,2013-10-14 12:34:00,
2013-10-14 08:39:00,66.7,65.3,30.06,NE,37,4.0,6.0,95,0.00,,,0.00,58.0,meteohub,2013-10-14 12:39:00,
2013-10-14 08:44:00,66.9,65.5,30.06,North,0,2.0,12.0,95,0.00,,,0.00,74.0,meteohub,2013-10-14 12:44:00,
2013-10-14 08:49:00,66.9,65.5,30.06,WNW,292,1.0,12.0,95,0.00,,,0.00,86.0,meteohub,2013-10-14 12:49:00,
2013-10-14 08:54:00,67.1,65.7,30.06,North,355,0.0,12.0,95,0.00,,,0.00,81.0,meteohub,2013-10-14 12:54:00,
2013-10-14 08:59:00,67.3,65.8,30.07,West,275,3.0,10.0,95,0.00,,,0.00,79.0,meteohub,2013-10-14 12:59:00,
2013-10-14 09:04:00,67.3,65.8,30.06,NW,308,0.0,6.0,95,0.00,,,0.00,56.0,meteohub,2013-10-14 13:04:00,
2013-10-14 09:09:00,67.3,65.5,30.06,WNW,296,4.0,7.0,94,0.00,,,0.00,49.0,meteohub,2013-10-14 13:09:00,
2013-10-14 09:14:00,67.3,65.5,30.07,NE,51,2.0,7.0,94,0.00,,,0.00,60.0,meteohub,2013-10-14 13:14:00,
2013-10-14 09:19:00,67.3,65.5,30.07,NNE,29,0.0,11.0,94,0.00,,,0.00,69.0,meteohub,2013-10-14 13:19:00,
2013-10-14 09:24:00,67.3,65.5,30.07,NE,38,3.0,11.0,94,0.00,,,0.00,51.0,meteohub,2013-10-14 13:24:00,
2013-10-14 09:29:00,67.5,65.7,30.07,NW,307,6.0,6.0,94,0.00,,,0.00,63.0,meteohub,2013-10-14 13:29:00,
2013-10-14 09:34:00,67.5,65.7,30.07,West,275,2.0,5.0,94,0.00,,,0.00,128.0,meteohub,2013-10-14 13:34:00,
2013-10-14 09:39:00,67.6,65.8,30.06,WNW,295,3.0,9.0,94,0.00,,,0.00,206.0,meteohub,2013-10-14 13:39:00,
2013-10-14 09:44:00,68.0,66.2,30.07,WNW,286,3.0,9.0,94,0.00,,,0.00,211.0,meteohub,2013-10-14 13:44:00,
2013-10-14 09:49:00,68.4,66.6,30.07,NNW,333,0.0,7.0,94,0.00,,,0.00,232.0,meteohub,2013-10-14 13:49:00,
2013-10-14 09:54:00,68.5,66.4,30.07,ENE,67,5.0,7.0,93,0.00,,,0.00,232.0,meteohub,2013-10-14 13:54:00,
2013-10-14 09:59:00,68.5,66.4,30.06,NW,319,4.0,8.0,93,0.00,,,0.00,267.0,meteohub,2013-10-14 13:59:00,
2013-10-14 10:04:00,69.1,66.7,30.07,WNW,298,3.0,8.0,92,0.00,,,0.00,297.0,meteohub,2013-10-14 14:04:00,
2013-10-14 10:09:00,69.3,66.9,30.07,NNW,341,1.0,9.0,92,0.00,,,0.00,364.0,meteohub,2013-10-14 14:09:00,
2013-10-14 10:14:00,69.4,66.7,30.06,WNW,300,7.0,9.0,91,0.00,,,0.00,318.0,meteohub,2013-10-14 14:14:00,
2013-10-14 10:19:00,69.4,66.7,30.06,NE,37,2.0,9.0,91,0.00,,,0.00,269.0,meteohub,2013-10-14 14:19:00,
2013-10-14 10:24:00,69.6,66.9,30.07,NE,34,4.0,8.0,91,0.00,,,0.00,332.0,meteohub,2013-10-14 14:24:00,
2013-10-14 10:29:00,70.0,67.3,30.06,NE,44,4.0,8.0,91,0.00,,,0.00,373.0,meteohub,2013-10-14 14:29:00,
2013-10-14 10:34:00,70.2,67.1,30.06,WSW,246,1.0,9.0,90,0.00,,,0.00,234.0,meteohub,2013-10-14 14:34:00,
2013-10-14 10:39:00,70.2,67.1,30.06,NE,48,4.0,10.0,90,0.00,,,0.00,195.0,meteohub,2013-10-14 14:39:00,
2013-10-14 10:44:00,70.0,66.9,30.06,NW,306,1.0,10.0,90,0.00,,,0.00,139.0,meteohub,2013-10-14 14:44:00,
2013-10-14 10:50:00,69.6,66.6,30.06,NNE,33,4.0,10.0,90,0.00,,,0.00,118.0,meteohub,2013-10-14 14:50:00,
2013-10-14 10:55:00,69.4,66.4,30.06,WNW,290,0.0,9.0,90,0.00,,,0.00,169.0,meteohub,2013-10-14 14:55:00,
2013-10-14 11:00:00,69.4,66.4,30.06,WNW,292,0.0,10.0,90,0.00,,,0.00,148.0,meteohub,2013-10-14 15:00:00,
2013-10-14 11:05:00,69.3,66.2,30.06,NE,37,5.0,10.0,90,0.00,,,0.00,139.0,meteohub,2013-10-14 15:05:00,
2013-10-14 11:10:00,69.4,66.4,30.06,NNE,22,2.0,10.0,90,0.00,,,0.00,269.0,meteohub,2013-10-14 15:10:00,
2013-10-14 11:15:00,70.2,66.7,30.06,NNE,21,3.0,13.0,89,0.00,,,0.00,737.0,meteohub,2013-10-14 15:15:00,
2013-10-14 11:20:00,70.7,66.9,30.06,NE,44,2.0,14.0,88,0.00,,,0.00,455.0,meteohub,2013-10-14 15:20:00,
2013-10-14 11:25:00,71.2,67.1,30.06,NNW,342,0.0,14.0,87,0.00,,,0.00,334.0,meteohub,2013-10-14 15:25:00,
2013-10-14 11:30:00,71.2,66.9,30.06,NE,47,2.0,14.0,86,0.00,,,0.00,283.0,meteohub,2013-10-14 15:30:00,
2013-10-14 11:35:00,71.4,67.1,30.06,ENE,57,4.0,11.0,86,0.00,,,0.00,304.0,meteohub,2013-10-14 15:35:00,
2013-10-14 11:40:00,72.0,67.5,30.06,ESE,118,2.0,9.0,86,0.00,,,0.00,204.0,meteohub,2013-10-14 15:40:00,
2013-10-14 11:45:00,72.0,67.5,30.06,WNW,291,5.0,8.0,86,0.00,,,0.00,251.0,meteohub,2013-10-14 15:45:00,
2013-10-14 11:50:00,72.0,67.3,30.06,NE,46,5.0,8.0,85,0.00,,,0.00,274.0,meteohub,2013-10-14 15:50:00,
2013-10-14 11:55:00,72.1,67.5,30.06,ENE,63,8.0,8.0,85,0.00,,,0.00,381.0,meteohub,2013-10-14 15:55:00,
2013-10-14 12:00:00,72.1,67.1,30.06,NE,38,3.0,8.0,84,0.00,,,0.00,355.0,meteohub,2013-10-14 16:00:00,
2013-10-14 12:05:00,72.3,67.3,30.06,NE,51,0.0,9.0,84,0.00,,,0.00,341.0,meteohub,2013-10-14 16:05:00,
2013-10-14 12:10:00,72.7,67.3,30.06,ENE,59,5.0,9.0,83,0.00,,,0.00,313.0,meteohub,2013-10-14 16:10:00,
2013-10-14 12:15:00,72.9,67.5,30.05,NNE,24,2.0,10.0,83,0.00,,,0.00,446.0,meteohub,2013-10-14 16:15:00,
2013-10-14 12:20:00,72.9,67.1,30.05,NNE,18,5.0,10.0,82,0.00,,,0.00,339.0,meteohub,2013-10-14 16:20:00,
2013-10-14 12:25:00,73.0,67.6,30.05,West,279,2.0,10.0,83,0.00,,,0.00,369.0,meteohub,2013-10-14 16:25:00,
2013-10-14 12:30:00,73.2,67.5,30.04,NNW,327,0.0,10.0,82,0.00,,,0.00,633.0,meteohub,2013-10-14 16:30:00,
2013-10-14 12:35:00,73.6,67.5,30.04,WNW,292,0.0,12.0,81,0.00,,,0.00,241.0,meteohub,2013-10-14 16:35:00,
2013-10-14 12:40:00,73.6,67.8,30.04,North,355,0.0,12.0,82,0.00,,,0.00,394.0,meteohub,2013-10-14 16:40:00,
2013-10-14 12:45:00,73.4,67.6,30.04,WNW,284,5.0,12.0,82,0.00,,,0.00,357.0,meteohub,2013-10-14 16:45:00,
2013-10-14 12:50:00,73.2,67.1,30.04,NNE,13,7.0,10.0,81,0.00,,,0.00,339.0,meteohub,2013-10-14 16:50:00,
2013-10-14 12:55:00,73.0,67.3,30.04,NE,41,4.0,10.0,82,0.00,,,0.00,206.0,meteohub,2013-10-14 16:55:00,
2013-10-14 13:00:00,72.9,67.1,30.04,North,11,2.0,10.0,82,0.00,,,0.00,239.0,meteohub,2013-10-14 17:00:00,
2013-10-14 13:05:00,72.9,67.1,30.04,NE,41,7.0,10.0,82,0.00,,,0.00,276.0,meteohub,2013-10-14 17:05:00,
2013-10-14 13:10:00,72.9,67.1,30.04,NNE,26,3.0,11.0,82,0.00,,,0.00,258.0,meteohub,2013-10-14 17:10:00,
2013-10-14 13:15:00,72.9,67.1,30.04,ENE,67,4.0,11.0,82,0.00,,,0.00,262.0,meteohub,2013-10-14 17:15:00,
2013-10-14 13:21:00,72.9,67.1,30.04,WNW,302,0.0,11.0,82,0.00,,,0.00,265.0,meteohub,2013-10-14 17:21:00,
2013-10-14 13:26:00,72.9,67.1,30.04,NE,56,3.0,9.0,82,0.00,,,0.00,209.0,meteohub,2013-10-14 17:26:00,
2013-10-14 13:31:00,72.9,67.1,30.03,NNE,33,1.0,9.0,82,0.00,,,0.00,137.0,meteohub,2013-10-14 17:31:00,
2013-10-14 13:36:00,72.7,66.9,30.03,ENE,57,3.0,9.0,82,0.00,,,0.00,141.0,meteohub,2013-10-14 17:36:00,
2013-10-14 13:41:00,72.3,66.9,30.03,NE,50,5.0,9.0,83,0.00,,,0.00,206.0,meteohub,2013-10-14 17:41:00,
2013-10-14 13:46:00,72.3,66.9,30.03,NE,38,0.0,9.0,83,0.00,,,0.00,156.0,meteohub,2013-10-14 17:46:00,
2013-10-14 13:51:00,72.5,67.1,30.02,NW,319,2.0,8.0,83,0.00,,,0.00,160.0,meteohub,2013-10-14 17:51:00,
2013-10-14 13:56:00,72.5,67.1,30.02,NW,315,0.0,8.0,83,0.00,,,0.00,153.0,meteohub,2013-10-14 17:56:00,
2013-10-14 14:01:00,72.3,66.9,30.02,NE,54,2.0,7.0,83,0.00,,,0.00,169.0,meteohub,2013-10-14 18:01:00,
2013-10-14 14:06:00,72.3,66.9,30.02,NE,51,6.0,7.0,83,0.00,,,0.00,137.0,meteohub,2013-10-14 18:06:00,
2013-10-14 14:11:00,72.3,66.9,30.02,NW,313,2.0,8.0,83,0.00,,,0.00,151.0,meteohub,2013-10-14 18:11:00,
2013-10-14 14:16:00,72.1,67.1,30.01,NE,44,0.0,10.0,84,0.00,,,0.00,130.0,meteohub,2013-10-14 18:16:00,
2013-10-14 14:21:00,72.1,66.7,30.01,NE,34,3.0,10.0,83,0.00,,,0.00,98.0,meteohub,2013-10-14 18:21:00,
2013-10-14 14:26:00,72.0,66.6,30.01,NW,325,1.0,10.0,83,0.00,,,0.00,93.0,meteohub,2013-10-14 18:26:00,
2013-10-14 14:31:00,72.0,66.9,30.01,NE,34,0.0,7.0,84,0.00,,,0.00,86.0,meteohub,2013-10-14 18:31:00,
2013-10-14 14:36:00,72.0,66.9,30.01,NNE,32,6.0,7.0,84,0.00,,,0.00,155.0,meteohub,2013-10-14 18:36:00,
2013-10-14 14:41:00,71.8,67.1,30.00,NE,40,3.0,8.0,85,0.00,,,0.00,181.0,meteohub,2013-10-14 18:41:00,
2013-10-14 14:46:00,72.0,66.9,30.01,NNE,28,1.0,8.0,84,0.00,,,0.00,179.0,meteohub,2013-10-14 18:46:00,
2013-10-14 14:51:00,72.1,67.1,30.00,ENE,64,2.0,7.0,84,0.00,,,0.00,165.0,meteohub,2013-10-14 18:51:00,
2013-10-14 14:56:00,72.1,67.1,30.00,NE,40,0.0,7.0,84,0.00,,,0.00,139.0,meteohub,2013-10-14 18:56:00,
2013-10-14 15:01:00,72.1,67.1,30.00,ENE,60,7.0,7.0,84,0.00,,,0.00,127.0,meteohub,2013-10-14 19:01:00,
2013-10-14 15:06:00,72.1,67.1,30.00,NE,38,4.0,7.0,84,0.00,,,0.00,100.0,meteohub,2013-10-14 19:06:00,
2013-10-14 15:11:00,72.0,66.9,30.00,West,279,2.0,7.0,84,0.00,,,0.00,84.0,meteohub,2013-10-14 19:11:00,
2013-10-14 15:16:00,72.0,66.9,30.00,East,92,5.0,7.0,84,0.00,,,0.00,81.0,meteohub,2013-10-14 19:16:00,
2013-10-14 15:21:00,71.8,66.7,30.00,NE,48,2.0,7.0,84,0.00,,,0.00,53.0,meteohub,2013-10-14 19:21:00,
2013-10-14 15:26:00,71.8,67.1,30.00,NW,315,0.0,9.0,85,0.00,,,0.00,56.0,meteohub,2013-10-14 19:26:00,
2013-10-14 15:31:00,71.6,66.9,30.00,NNE,19,0.0,9.0,85,0.00,,,0.00,74.0,meteohub,2013-10-14 19:31:00,
2013-10-14 15:36:00,71.4,66.7,30.00,NE,46,0.0,5.0,85,0.00,,,0.00,84.0,meteohub,2013-10-14 19:36:00,
2013-10-14 15:41:00,71.6,66.9,30.00,ENE,59,4.0,6.0,85,0.00,,,0.00,69.0,meteohub,2013-10-14 19:41:00,
2013-10-14 15:46:00,71.4,67.1,30.01,WNW,295,1.0,6.0,86,0.00,,,0.00,90.0,meteohub,2013-10-14 19:46:00,
2013-10-14 15:51:00,71.2,66.6,30.01,West,273,4.0,5.0,85,0.00,,,0.00,81.0,meteohub,2013-10-14 19:51:00,
2013-10-14 15:56:00,71.1,66.7,30.01,East,82,1.0,7.0,86,0.00,,,0.00,72.0,meteohub,2013-10-14 19:56:00,
2013-10-14 16:01:00,70.9,66.7,30.01,NW,309,4.0,10.0,87,0.00,,,0.00,116.0,meteohub,2013-10-14 20:01:00,
2013-10-14 16:06:00,70.7,66.6,30.01,NW,317,0.0,10.0,87,0.00,,,0.00,102.0,meteohub,2013-10-14 20:06:00,
2013-10-14 16:11:00,70.7,66.6,30.01,NNW,327,0.0,8.0,87,0.00,,,0.00,121.0,meteohub,2013-10-14 20:11:00,
2013-10-14 16:16:00,70.9,67.1,30.01,NW,304,0.0,8.0,88,0.00,,,0.00,149.0,meteohub,2013-10-14 20:16:00,
2013-10-14 16:21:00,70.9,66.7,30.00,WNW,294,1.0,5.0,87,0.00,,,0.00,137.0,meteohub,2013-10-14 20:21:00,
2013-10-14 16:26:00,71.1,67.3,30.00,WNW,301,0.0,5.0,88,0.00,,,0.00,132.0,meteohub,2013-10-14 20:26:00,
2013-10-14 16:31:00,71.1,66.9,30.00,NW,304,1.0,7.0,87,0.00,,,0.00,104.0,meteohub,2013-10-14 20:31:00,
2013-10-14 16:36:00,70.9,66.7,30.00,WNW,300,0.0,7.0,87,0.00,,,0.00,128.0,meteohub,2013-10-14 20:36:00,
2013-10-14 16:41:00,70.9,67.1,30.00,NW,313,0.0,7.0,88,0.00,,,0.00,102.0,meteohub,2013-10-14 20:41:00,
2013-10-14 16:47:00,70.9,66.7,30.00,NE,41,0.0,5.0,87,0.00,,,0.00,100.0,meteohub,2013-10-14 20:47:00,
2013-10-14 16:52:00,70.9,66.7,30.01,NNW,333,0.0,5.0,87,0.00,,,0.00,91.0,meteohub,2013-10-14 20:52:00,
2013-10-14 16:57:00,71.1,66.9,30.00,WNW,294,1.0,6.0,87,0.00,,,0.00,104.0,meteohub,2013-10-14 20:57:00,
2013-10-14 17:02:00,71.1,66.9,30.00,NW,306,1.0,6.0,87,0.00,,,0.00,91.0,meteohub,2013-10-14 21:02:00,
2013-10-14 17:07:00,70.9,66.7,30.00,NE,38,5.0,10.0,87,0.00,,,0.00,114.0,meteohub,2013-10-14 21:07:00,
2013-10-14 17:12:00,70.9,66.6,30.00,WNW,298,1.0,10.0,86,0.00,,,0.00,130.0,meteohub,2013-10-14 21:12:00,
2013-10-14 17:17:00,71.1,66.7,30.00,North,11,2.0,8.0,86,0.00,,,0.00,97.0,meteohub,2013-10-14 21:17:00,
2013-10-14 17:22:00,71.1,66.9,30.00,NNW,329,0.0,8.0,87,0.00,,,0.00,97.0,meteohub,2013-10-14 21:22:00,
2013-10-14 17:27:00,71.1,66.9,30.00,WNW,303,6.0,8.0,87,0.00,,,0.00,58.0,meteohub,2013-10-14 21:27:00,
2013-10-14 17:32:00,70.9,66.7,30.00,NW,318,0.0,8.0,87,0.00,,,0.00,53.0,meteohub,2013-10-14 21:32:00,
2013-10-14 17:37:00,70.9,66.7,30.00,WNW,300,2.0,8.0,87,0.00,,,0.00,53.0,meteohub,2013-10-14 21:37:00,
2013-10-14 17:42:00,70.7,66.6,30.00,NW,326,0.0,8.0,87,0.00,,,0.00,35.0,meteohub,2013-10-14 21:42:00,
2013-10-14 17:47:00,70.7,66.6,30.00,NNE,29,0.0,8.0,87,0.00,,,0.00,53.0,meteohub,2013-10-14 21:47:00,
2013-10-14 17:52:00,70.5,66.4,30.00,WNW,288,0.0,8.0,87,0.00,,,0.00,69.0,meteohub,2013-10-14 21:52:00,
2013-10-14 17:57:00,70.5,66.7,30.00,NW,318,1.0,8.0,88,0.00,,,0.00,42.0,meteohub,2013-10-14 21:57:00,
2013-10-14 18:02:00,70.3,66.6,30.00,WNW,295,0.0,8.0,88,0.00,,,0.00,44.0,meteohub,2013-10-14 22:02:00,
2013-10-14 18:07:00,70.3,66.6,30.00,West,269,0.0,6.0,88,0.00,,,0.00,23.0,meteohub,2013-10-14 22:07:00,
2013-10-14 18:12:00,70.3,66.6,30.00,WNW,296,0.0,7.0,88,0.00,,,0.00,39.0,meteohub,2013-10-14 22:12:00,
2013-10-14 18:17:00,70.2,66.4,30.00,NNW,329,3.0,7.0,88,0.00,,,0.00,16.0,meteohub,2013-10-14 22:17:00,
2013-10-14 18:22:00,70.2,66.4,30.00,NW,323,0.0,7.0,88,0.00,,,0.00,9.0,meteohub,2013-10-14 22:22:00,
2013-10-14 18:27:00,70.2,66.4,30.00,NNW,340,2.0,8.0,88,0.00,,,0.00,9.0,meteohub,2013-10-14 22:27:00,
2013-10-14 18:32:00,70.0,66.2,30.00,WNW,296,4.0,8.0,88,0.00,,,0.00,11.0,meteohub,2013-10-14 22:32:00,
2013-10-14 18:37:00,70.0,66.6,30.01,WNW,296,8.0,8.0,89,0.00,,,0.00,5.0,meteohub,2013-10-14 22:37:00,
2013-10-14 18:42:00,70.0,66.2,30.01,West,280,2.0,8.0,88,0.00,,,0.00,0.0,meteohub,2013-10-14 22:42:00,
2013-10-14 18:47:00,70.0,66.2,30.01,WNW,300,0.0,8.0,88,0.00,,,0.00,0.0,meteohub,2013-10-14 22:47:00,
2013-10-14 18:52:00,70.0,66.2,30.01,NW,307,1.0,8.0,88,0.00,,,0.00,0.0,meteohub,2013-10-14 22:52:00,
2013-10-14 18:57:00,69.8,66.4,30.01,WNW,295,0.0,6.0,89,0.00,,,0.00,0.0,meteohub,2013-10-14 22:57:00,
2013-10-14 19:02:00,69.8,66.4,30.01,WNW,287,1.0,6.0,89,0.00,,,0.00,0.0,meteohub,2013-10-14 23:02:00,
2013-10-14 19:08:00,69.8,66.4,30.01,NW,309,1.0,6.0,89,0.00,,,0.00,0.0,meteohub,2013-10-14 23:08:00,
2013-10-14 19:13:00,69.6,66.2,30.01,WNW,298,0.0,6.0,89,0.00,,,0.00,0.0,meteohub,2013-10-14 23:13:00,
2013-10-14 19:18:00,69.6,66.2,30.00,West,273,0.0,6.0,89,0.00,,,0.00,0.0,meteohub,2013-10-14 23:18:00,
2013-10-14 19:23:00,69.6,66.2,30.00,WNW,290,0.0,7.0,89,0.00,,,0.00,0.0,meteohub,2013-10-14 23:23:00,
2013-10-14 19:28:00,69.4,66.0,30.00,West,275,0.0,7.0,89,0.00,,,0.00,0.0,meteohub,2013-10-14 23:28:00,
2013-10-14 19:33:00,69.4,66.0,30.00,NW,318,0.0,7.0,89,0.00,,,0.00,0.0,meteohub,2013-10-14 23:33:00,
2013-10-14 19:38:00,69.4,66.0,30.01,NW,321,0.0,5.0,89,0.00,,,0.00,0.0,meteohub,2013-10-14 23:38:00,
2013-10-14 19:43:00,69.4,66.0,30.01,WNW,283,0.0,5.0,89,0.00,,,0.00,0.0,meteohub,2013-10-14 23:43:00,
2013-10-14 19:48:00,69.4,66.0,30.01,NW,309,1.0,5.0,89,0.00,,,0.00,0.0,meteohub,2013-10-14 23:48:00,
2013-10-14 19:53:00,69.4,66.0,30.01,WNW,291,2.0,6.0,89,0.00,,,0.00,0.0,meteohub,2013-10-14 23:53:00,
2013-10-14 19:58:00,69.3,65.8,30.01,WNW,289,1.0,9.0,89,0.00,,,0.00,0.0,meteohub,2013-10-14 23:58:00,
2013-10-14 20:03:00,69.3,66.2,30.01,WNW,300,1.0,9.0,90,0.00,,,0.00,0.0,meteohub,2013-10-15 00:03:00,
2013-10-14 20:08:00,69.3,66.2,30.01,WNW,288,5.0,9.0,90,0.00,,,0.00,0.0,meteohub,2013-10-15 00:08:00,
2013-10-14 20:13:00,69.3,66.2,30.01,West,261,3.0,5.0,90,0.00,,,0.00,0.0,meteohub,2013-10-15 00:13:00,
2013-10-14 20:18:00,69.3,66.2,30.00,WNW,298,1.0,7.0,90,0.00,,,0.00,0.0,meteohub,2013-10-15 00:18:00,
2013-10-14 20:23:00,69.3,66.2,30.01,WNW,299,0.0,7.0,90,0.00,,,0.00,0.0,meteohub,2013-10-15 00:23:00,
2013-10-14 20:28:00,69.3,66.2,30.01,East,88,0.0,7.0,90,0.00,,,0.00,0.0,meteohub,2013-10-15 00:28:00,
2013-10-14 20:33:00,69.3,66.2,30.01,NW,307,1.0,6.0,90,0.00,,,0.00,0.0,meteohub,2013-10-15 00:33:00,
2013-10-14 20:38:00,69.3,66.2,30.01,WNW,290,0.0,7.0,90,0.00,,,0.00,0.0,meteohub,2013-10-15 00:38:00,
2013-10-14 20:43:00,69.3,66.2,30.01,SSW,211,1.0,9.0,90,0.00,,,0.00,0.0,meteohub,2013-10-15 00:43:00,
2013-10-14 20:48:00,69.3,66.2,30.01,WNW,288,4.0,9.0,90,0.00,,,0.00,0.0,meteohub,2013-10-15 00:48:00,
2013-10-14 20:53:00,69.3,66.2,30.01,NE,48,0.0,8.0,90,0.00,,,0.00,0.0,meteohub,2013-10-15 00:53:00,
2013-10-14 20:58:00,69.3,66.2,30.01,ENE,60,4.0,8.0,90,0.00,,,0.00,0.0,meteohub,2013-10-15 00:58:00,
2013-10-14 21:03:00,69.3,66.2,30.01,WNW,289,5.0,7.0,90,0.00,,,0.00,0.0,meteohub,2013-10-15 01:03:00,
2013-10-14 21:08:00,69.1,66.0,30.01,NW,313,4.0,7.0,90,0.00,,,0.00,0.0,meteohub,2013-10-15 01:08:00,
2013-10-14 21:13:00,69.1,66.0,30.01,ENE,74,3.0,8.0,90,0.00,,,0.00,0.0,meteohub,2013-10-15 01:13:00,
2013-10-14 21:18:00,69.1,66.0,30.02,WNW,284,10.0,10.0,90,0.00,,,0.00,0.0,meteohub,2013-10-15 01:18:00,
2013-10-14 21:23:00,69.1,66.0,30.02,NNW,348,0.0,8.0,90,0.00,,,0.00,0.0,meteohub,2013-10-15 01:23:00,
2013-10-14 21:28:00,69.1,66.0,30.02,NNE,27,0.0,11.0,90,0.00,,,0.00,0.0,meteohub,2013-10-15 01:28:00,
2013-10-14 21:33:00,69.1,66.0,30.02,WNW,303,7.0,11.0,90,0.00,,,0.00,0.0,meteohub,2013-10-15 01:33:00,
2013-10-14 21:38:00,69.1,66.0,30.02,WNW,298,2.0,7.0,90,0.00,,,0.00,0.0,meteohub,2013-10-15 01:38:00,
2013-10-14 21:43:00,68.9,65.8,30.02,WNW,287,0.0,8.0,90,0.00,,,0.00,0.0,meteohub,2013-10-15 01:43:00,
2013-10-14 21:48:00,68.9,65.8,30.02,NNE,13,1.0,8.0,90,0.00,,,0.00,0.0,meteohub,2013-10-15 01:48:00,
2013-10-14 21:53:00,68.9,65.8,30.03,WNW,284,3.0,6.0,90,0.00,,,0.00,0.0,meteohub,2013-10-15 01:53:00,
2013-10-14 21:58:00,68.9,65.8,30.03,WNW,294,4.0,6.0,90,0.00,,,0.00,0.0,meteohub,2013-10-15 01:58:00,
2013-10-14 22:03:00,68.9,65.8,30.03,North,0,2.0,6.0,90,0.00,,,0.00,0.0,meteohub,2013-10-15 02:03:00,
2013-10-14 22:09:00,68.9,65.8,30.03,NE,55,1.0,8.0,90,0.00,,,0.00,0.0,meteohub,2013-10-15 02:09:00,
2013-10-14 22:14:00,68.9,65.8,30.03,NW,312,2.0,8.0,90,0.00,,,0.00,0.0,meteohub,2013-10-15 02:14:00,
2013-10-14 22:19:00,68.9,65.8,30.03,NW,319,2.0,7.0,90,0.00,,,0.00,0.0,meteohub,2013-10-15 02:19:00,
2013-10-14 22:24:00,68.9,65.8,30.03,NNE,19,0.0,7.0,90,0.00,,,0.00,0.0,meteohub,2013-10-15 02:24:00,
2013-10-14 22:29:00,68.9,65.8,30.03,East,87,0.0,7.0,90,0.00,,,0.00,0.0,meteohub,2013-10-15 02:29:00,
2013-10-14 22:34:00,68.7,65.7,30.03,WNW,300,5.0,8.0,90,0.00,,,0.00,0.0,meteohub,2013-10-15 02:34:00,
2013-10-14 22:39:00,68.7,65.7,30.03,NNW,347,0.0,8.0,90,0.00,,,0.00,0.0,meteohub,2013-10-15 02:39:00,
2013-10-14 22:44:00,68.7,65.7,30.03,ENE,59,2.0,9.0,90,0.00,,,0.00,0.0,meteohub,2013-10-15 02:44:00,
2013-10-14 22:49:00,68.7,65.7,30.03,NE,55,4.0,9.0,90,0.00,,,0.00,0.0,meteohub,2013-10-15 02:49:00,
2013-10-14 22:54:00,68.7,65.7,30.03,NNE,28,3.0,9.0,90,0.00,,,0.00,0.0,meteohub,2013-10-15 02:54:00,
2013-10-14 22:59:00,68.7,65.7,30.03,NE,51,1.0,9.0,90,0.00,,,0.00,0.0,meteohub,2013-10-15 02:59:00,
2013-10-14 23:04:00,68.7,65.7,30.03,NE,53,0.0,9.0,90,0.00,,,0.00,0.0,meteohub,2013-10-15 03:04:00,
2013-10-14 23:09:00,68.7,65.7,30.03,ENE,63,2.0,9.0,90,0.00,,,0.00,0.0,meteohub,2013-10-15 03:09:00,
2013-10-14 23:14:00,68.5,65.5,30.03,WNW,299,0.0,9.0,90,0.00,,,0.00,0.0,meteohub,2013-10-15 03:14:00,
2013-10-14 23:19:00,68.5,65.5,30.03,NNW,346,0.0,8.0,90,0.00,,,0.00,0.0,meteohub,2013-10-15 03:19:00,
2013-10-14 23:24:00,68.5,65.5,30.03,WNW,301,2.0,8.0,90,0.00,,,0.00,0.0,meteohub,2013-10-15 03:24:00,
2013-10-14 23:29:00,68.5,65.5,30.03,WNW,298,6.0,8.0,90,0.00,,,0.00,0.0,meteohub,2013-10-15 03:29:00,
2013-10-14 23:34:00,68.5,65.8,30.03,NW,304,2.0,7.0,91,0.00,,,0.00,0.0,meteohub,2013-10-15 03:34:00,
2013-10-14 23:39:00,68.5,65.5,30.03,WSW,252,0.0,8.0,90,0.00,,,0.00,0.0,meteohub,2013-10-15 03:39:00,
2013-10-14 23:45:00,68.5,65.5,30.03,WNW,296,0.0,8.0,90,0.00,,,0.00,0.0,meteohub,2013-10-15 03:45:00,
2013-10-14 23:50:00,68.5,65.8,30.03,WNW,288,0.0,7.0,91,0.00,,,0.00,0.0,meteohub,2013-10-15 03:50:00,
2013-10-14 23:55:00,68.4,65.3,30.02,ENE,61,0.0,7.0,90,0.00,,,0.00,0.0,meteohub,2013-10-15 03:55:00,